createdAt,value
2019-02-15T00:08:47.266Z,99.90
2019-02-15T00:38:48.618Z,99.90
2019-02-15T01:09:01.009Z,99.90
2019-02-15T01:39:19.181Z,99.90
2019-02-15T02:09:21.186Z,99.90
2019-02-15T02:39:22.615Z,99.90
2019-02-15T03:09:23.956Z,99.90
2019-02-15T03:39:27.216Z,99.90
2019-02-15T04:09:28.534Z,99.90
2019-02-15T04:39:30.000Z,99.90
2019-02-15T05:09:31.289Z,99.90
2019-02-15T05:39:32.637Z,99.90
2019-02-15T06:09:33.973Z,99.90
2019-02-15T06:39:35.302Z,99.90
2019-02-15T07:09:36.632Z,99.90
2019-02-15T07:31:32.851Z,99.90
2019-02-15T07:41:34.360Z,99.90
2019-02-15T07:51:35.799Z,99.90
2019-02-15T08:01:37.298Z,99.70
2019-02-15T08:11:38.762Z,98.20
2019-02-15T08:21:40.202Z,98.90
2019-02-15T08:31:41.676Z,96.50
2019-02-15T08:42:00.704Z,96.70
2019-02-15T08:51:47.632Z,94.90
2019-02-15T09:01:51.000Z,96.10
2019-02-15T09:11:52.489Z,91.00
2019-02-15T09:21:53.948Z,93.40
2019-02-15T09:31:55.435Z,91.60
2019-02-15T09:41:56.966Z,91.10
2019-02-15T09:51:58.428Z,84.40
2019-02-15T10:02:00.023Z,87.60
2019-02-15T10:12:01.521Z,85.20
2019-02-15T10:22:03.047Z,69.50
2019-02-15T10:32:04.486Z,74.00
2019-02-15T10:42:06.300Z,60.40
2019-02-15T10:52:07.819Z,74.40
2019-02-15T11:02:09.273Z,64.00
2019-02-15T11:12:10.718Z,69.20
2019-02-15T11:22:12.235Z,62.60
2019-02-15T11:32:13.696Z,63.10
2019-02-15T11:42:15.183Z,63.70
2019-02-15T11:52:16.699Z,60.80
2019-02-15T12:02:18.159Z,45.70
2019-02-15T12:12:19.608Z,44.10
2019-02-15T12:22:21.062Z,44.40
2019-02-15T12:32:22.544Z,43.50
2019-02-15T12:42:24.000Z,44.00
2019-02-15T12:52:25.574Z,43.80
2019-02-15T13:02:27.092Z,38.80
2019-02-15T13:12:28.576Z,42.50
2019-02-15T13:22:30.136Z,41.80
2019-02-15T13:32:31.632Z,39.80
2019-02-15T13:42:33.223Z,39.60
2019-02-15T13:52:34.684Z,39.40
2019-02-15T14:02:36.204Z,41.80
2019-02-15T14:12:38.202Z,39.80
2019-02-15T14:22:39.708Z,40.00
2019-02-15T14:32:41.232Z,41.90
2019-02-15T14:42:42.728Z,39.70
2019-02-15T14:52:44.239Z,41.40
2019-02-15T15:02:45.692Z,42.10
2019-02-15T15:12:47.188Z,42.50
2019-02-15T15:22:48.656Z,43.80
2019-02-15T15:32:50.131Z,53.90
2019-02-15T15:42:51.577Z,56.80
2019-02-15T15:52:53.125Z,57.70
2019-02-15T16:02:54.596Z,63.30
2019-02-15T16:12:58.074Z,64.40
2019-02-15T16:22:59.567Z,70.10
2019-02-15T16:33:00.993Z,72.30
2019-02-15T16:43:02.564Z,74.00
2019-02-15T16:53:04.098Z,73.10
2019-02-15T17:03:05.676Z,76.10
2019-02-15T17:13:07.133Z,82.30
2019-02-15T17:23:08.608Z,79.50
2019-02-15T17:33:10.064Z,87.00
2019-02-15T17:43:11.608Z,90.00
2019-02-15T17:53:13.128Z,91.90
2019-02-15T18:03:14.631Z,91.00
2019-02-15T18:13:16.191Z,88.30
2019-02-15T18:23:17.687Z,90.40
2019-02-15T18:33:19.197Z,87.00
2019-02-15T18:43:20.756Z,85.80
2019-02-15T18:53:22.249Z,83.80
2019-02-15T19:03:24.031Z,86.80
2019-02-15T19:13:25.564Z,91.70
2019-02-15T19:23:27.035Z,90.50
2019-02-15T19:33:28.583Z,91.40
2019-02-15T19:43:30.047Z,92.40
2019-02-15T19:53:31.526Z,94.20
2019-02-15T20:03:33.227Z,93.80
2019-02-15T20:13:34.682Z,92.30
2019-02-15T20:23:36.220Z,93.60
2019-02-15T20:33:37.700Z,93.90
2019-02-15T20:43:39.199Z,92.30
2019-02-15T20:53:40.694Z,93.70
2019-02-15T21:03:43.508Z,91.70
2019-02-15T21:13:45.052Z,92.50
2019-02-15T21:23:46.550Z,95.50
2019-02-15T21:33:48.075Z,94.50
2019-02-15T21:43:49.514Z,93.60
2019-02-15T21:53:51.017Z,93.70
2019-02-15T22:03:52.525Z,94.30
2019-02-15T22:13:53.998Z,93.00
2019-02-15T22:23:55.456Z,92.40
2019-02-15T22:33:56.976Z,93.00
2019-02-15T22:43:58.441Z,95.70
2019-02-15T22:53:59.907Z,96.00
2019-02-15T23:04:01.354Z,93.60
2019-02-15T23:14:02.919Z,94.50
2019-02-15T23:24:04.526Z,92.80
2019-02-15T23:34:05.952Z,93.10
2019-02-15T23:44:07.552Z,93.80
2019-02-15T23:54:09.168Z,93.40
